• Join FlightAware (Why Join?)
  • Login
  • US Flag 
03:57PM EDT


 

Airport Tracker/Info


-or-


 

Live Flight TrackerFlight Track Log ✈ LXJ541 ✈ 12-Jun-2013 ✈ KBOS - KTEB

Flight Track Log - Related Links

Times and Time Zones

All times are in EDT time to prevent confusion due to time zone crossing. See the LXJ541 flight status page for this flight to view local times or setup timezone preferences in your user account.

Time Position Orientation Groundspeed Altitude Reporting Facility
EDT Latitude Longitude Course Direction KTS MPH feet Rate Location/Type
07:04PM 42.3667 -70.9833 90° East 176 203 800  Level KA90
07:05PM 42.3667 -70.9167 90° East 238 274 4,000 3,000 Climbing KA90
07:06PM 42.3792 -70.8717 69° East 273 314 5,100 2,280 Climbing Boston Center
07:07PM 42.3861 -70.7706 85° East 283 326 7,500 1,980 Climbing Boston Center
07:08PM 42.3103 -70.7275 157° South 217 250 9,100 2,040 Climbing Boston Center
07:09PM 42.2636 -70.8131 234° Southwest 176 203 11,600 2,100 Climbing Boston Center
07:10PM 42.2569 -70.9253 265° West 237 273 13,300 1,500 Climbing Boston Center
07:11PM 42.2542 -71.0406 268° West 311 358 14,900 1,200 Climbing Boston Center
07:12PM 42.2436 -71.2061 265° West 372 428 16,000 540 Climbing Boston Center
07:13PM 42.2389 -71.3578 268° West 377 434 16,000  Level Boston Center
07:14PM 42.2297 -71.4839 264° West 377 434 16,000  Level Boston Center
07:15PM 42.2244 -71.6242 267° West 377 434 16,000  Level Boston Center
07:16PM 42.2172 -71.7786 266° West 377 434 16,000  Level Boston Center
07:17PM 42.2075 -71.9189 265° West 377 434 16,100  Climbing Boston Center
07:18PM 42.2017 -72.0336 266° West 366 421 16,000 -60 Descending Boston Center
07:19PM 42.1939 -72.1850 266° West 366 421 16,000  Level Boston Center
07:20PM 42.1836 -72.3447 265° West 366 421 16,000  Level Boston Center
07:22PM 42.1336 -72.4110 225° Southwest  Level Estimated
07:22PM 42.1689 -72.6053 225° Southwest 361 415 16,000  Level Boston Center
07:23PM 42.1603 -72.7397 265° West 361 415 16,000  Level Boston Center
07:24PM 42.1536 -72.8686 266° West 361 415 16,000  Level Boston Center
07:25PM 42.1447 -73.0000 265° West 356 410 16,000  Level Boston Center
07:26PM 42.1358 -73.1175 264° West 348 400 16,000  Level Boston Center
07:27PM 42.1267 -73.2547 265° West 348 400 16,000  Level Boston Center
07:28PM 42.1172 -73.3889 265° West 348 400 16,000  Level Boston Center
07:29PM 42.1078 -73.5175 264° West 348 400 16,000 -420 Level Boston Center
07:30PM 42.0772 -73.6428 252° West 348 400 15,200 -900 Descending Boston Center
07:31PM 42.0364 -73.7594 245° Southwest 348 400 14,200 -600 Descending Boston Center
07:32PM 41.9953 -73.8731 244° Southwest 363 418 14,000 -840 Descending Boston Center
07:33PM 41.9497 -74.0033 245° Southwest 363 418 12,600 -1,320 Descending Boston Center
07:34PM 41.9086 -74.1250 246° West 358 412 11,400 -1,200 Descending Boston Center
07:35PM 41.8672 -74.2297 242° Southwest 358 412 10,300 -720 Descending Boston Center
07:36PM 41.7764 -74.3164 215° Southwest 363 418 10,000 -360 Descending Boston Center
07:37PM 41.6939 -74.3778 209° Southwest 346 398 9,600 -900 Descending Boston Center
07:38PM 41.6242 -74.4342 211° Southwest 313 360 8,200 -1,500 Descending Boston Center
07:39PM 41.5567 -74.4847 209° Southwest 290 334 6,700 -1,140 Descending Boston Center
07:40PM 41.4869 -74.5350 208° Southwest 285 328 6,000 -300 Descending Boston Center
07:42PM 41.3667 -74.6000 202° Southwest 288 331 6,000 -120 Level New York TRACON
07:43PM 41.2833 -74.6333 197° South 293 337 5,700 -720 Descending New York TRACON
07:44PM 41.2167 -74.6167 169° South 275 316 4,600 -900 Descending New York TRACON
07:45PM 41.1333 -74.6167 180° South 273 314 4,000 -300 Descending New York TRACON
07:46PM 41.0667 -74.5833 159° South 283 326 4,000  Level New York TRACON
07:47PM 41.0000 -74.5167 143° Southeast 286 329 4,000 -540 Level New York TRACON
07:48PM 40.9333 -74.4667 150° Southeast 279 321 3,000 -540 Descending New York TRACON
07:49PM 40.8667 -74.4167 150° Southeast 280 322 3,000  Level New York TRACON
07:50PM 40.8000 -74.3833 159° South 230 265 3,000  Level New York TRACON
07:51PM 40.7500 -74.3500 153° Southeast 200 230 3,000 -360 Level New York TRACON
07:52PM 40.7000 -74.3333 166° South 211 243 2,300 -540 Descending New York TRACON
07:53PM 40.7167 -74.2667 72° East 185 213 2,000 -420 Descending New York TRACON
07:54PM 40.7500 -74.2167 49° Northeast 182 209 1,500 -300 Descending New York TRACON
07:55PM 40.7833 -74.1667 49° Northeast 178 205 1,500 -240 Level New York TRACON
07:56PM 40.8167 -74.1167 49° Northeast 168 193 1,000 -600 Descending New York TRACON
07:57PM 40.8333 -74.0833 57° Northeast 123 142 400 -720 Descending New York TRACON
07:59PM 40.8500 -74.0500 61° Northeast  Level FlightAware Approximate
08:06PM 40.8501 -74.0608 61° Northeast  Level Estimated